Time,TemperatureF,DewpointF,PressureIn,WindDirection,WindDirectionDegrees,WindSpeedMPH,WindSpeedGustMPH,Humidity,HourlyPrecipIn,Conditions,Clouds,dailyrainin,SoftwareType,DateUTC
2013-01-21 11:38:00,36.2,16.9,18.24,SSE,148,1.0,1.0,45,0.00,,,0.00,Wunderground v.1.15,2013-01-21 17:38:00,
2013-01-21 11:43:00,36.0,17.2,18.24,SSE,148,0.0,4.0,46,0.00,,,0.00,Wunderground v.1.15,2013-01-21 17:43:00,
2013-01-21 11:48:00,36.0,15.6,16.64,East,94,0.0,5.0,43,0.00,,,0.00,Wunderground v.1.15,2013-01-21 17:48:00,
2013-01-21 11:53:00,36.8,16.4,16.64,East,80,0.0,3.0,43,0.00,,,0.00,Wunderground v.1.15,2013-01-21 17:53:00,
2013-01-21 11:59:00,37.8,16.7,16.64,SSE,159,1.0,4.0,42,0.00,,,0.00,Wunderground v.1.15,2013-01-21 17:59:00,
2013-01-21 12:04:00,38.5,17.9,16.64,North,5,0.0,1.0,43,0.00,,,0.00,Wunderground v.1.15,2013-01-21 18:04:00,
2013-01-21 12:09:00,39.2,18.0,16.91,NW,317,0.0,4.0,42,0.00,,,0.00,Wunderground v.1.15,2013-01-21 18:09:00,
2013-01-21 12:14:00,38.9,17.2,16.91,ENE,66,1.0,3.0,41,0.00,,,0.00,Wunderground v.1.15,2013-01-21 18:14:00,
2013-01-21 12:19:00,38.9,17.7,16.91,ENE,69,0.0,7.0,42,0.00,,,0.00,Wunderground v.1.15,2013-01-21 18:19:00,
2013-01-21 12:24:00,39.3,17.0,16.91,SSW,213,4.0,6.0,40,0.00,,,0.00,Wunderground v.1.15,2013-01-21 18:24:00,
2013-01-21 12:29:00,38.9,16.6,16.91,North,11,0.0,6.0,40,0.00,,,0.00,Wunderground v.1.15,2013-01-21 18:29:00,
2013-01-21 12:34:00,38.5,16.8,16.91,ESE,121,0.0,4.0,41,0.00,,,0.00,Wunderground v.1.15,2013-01-21 18:34:00,
2013-01-21 12:39:00,38.5,17.4,16.91,North,349,6.0,6.0,42,0.00,,,0.00,Wunderground v.1.15,2013-01-21 18:39:00,
2013-01-21 12:44:00,39.5,17.1,16.91,NNW,331,0.0,4.0,40,0.00,,,0.00,Wunderground v.1.15,2013-01-21 18:44:00,
2013-01-21 12:49:00,39.5,17.1,16.91,NNE,27,0.0,4.0,40,0.00,,,0.00,Wunderground v.1.15,2013-01-21 18:49:00,
2013-01-21 12:54:00,40.1,17.1,16.91,West,280,0.0,3.0,39,0.00,,,0.00,Wunderground v.1.15,2013-01-21 18:54:00,
2013-01-21 12:59:00,40.3,17.3,19.64,NW,324,0.0,6.0,39,0.00,,,0.00,Wunderground v.1.15,2013-01-21 18:59:00,
2013-01-21 13:04:00,40.1,18.3,19.64,WNW,298,0.0,3.0,41,0.00,,,0.00,Wunderground v.1.15,2013-01-21 19:04:00,
2013-01-21 13:09:00,40.2,17.8,19.64,NNW,331,0.0,3.0,40,0.00,,,0.00,Wunderground v.1.15,2013-01-21 19:09:00,
2013-01-21 13:14:00,40.4,18.0,19.64,NNW,331,1.0,9.0,40,0.00,,,0.00,Wunderground v.1.15,2013-01-21 19:14:00,
2013-01-21 13:19:00,40.0,17.6,19.64,NNW,346,0.0,9.0,40,0.00,,,0.00,Wunderground v.1.15,2013-01-21 19:19:00,
2013-01-21 13:24:00,40.0,18.2,19.64,NW,324,0.0,2.0,41,0.00,,,0.00,Wunderground v.1.15,2013-01-21 19:24:00,
2013-01-21 13:29:00,40.0,17.6,19.64,NW,323,0.0,3.0,40,0.00,,,0.00,Wunderground v.1.15,2013-01-21 19:29:00,
2013-01-21 13:34:00,39.5,17.1,19.64,NW,322,0.0,3.0,40,0.00,,,0.00,Wunderground v.1.15,2013-01-21 19:34:00,
2013-01-21 13:39:00,39.5,17.7,19.64,NNW,333,0.0,4.0,41,0.00,,,0.00,Wunderground v.1.15,2013-01-21 19:39:00,
2013-01-21 13:44:00,39.6,17.2,19.64,NNW,329,0.0,5.0,40,0.00,,,0.00,Wunderground v.1.15,2013-01-21 19:44:00,
2013-01-21 13:49:00,39.8,18.5,19.64,ENE,63,0.0,5.0,42,0.00,,,0.00,Wunderground v.1.15,2013-01-21 19:49:00,
2013-01-21 13:54:00,39.8,18.0,19.64,NE,53,1.0,3.0,41,0.00,,,0.00,Wunderground v.1.15,2013-01-21 19:54:00,
2013-01-21 13:59:00,39.5,17.1,19.64,NE,51,0.0,3.0,40,0.00,,,0.00,Wunderground v.1.15,2013-01-21 19:59:00,
2013-01-21 14:04:00,39.4,17.6,16.07,WNW,297,1.0,4.0,41,0.00,,,0.00,Wunderground v.1.15,2013-01-21 20:04:00,
2013-01-21 14:09:00,39.3,17.5,16.07,NNW,327,0.0,4.0,41,0.00,,,0.00,Wunderground v.1.15,2013-01-21 20:09:00,
2013-01-21 14:14:00,39.1,17.4,17.17,NW,325,0.0,3.0,41,0.00,,,0.00,Wunderground v.1.15,2013-01-21 20:14:00,
2013-01-21 14:19:00,39.0,17.8,17.17,NNW,328,2.0,4.0,42,0.00,,,0.00,Wunderground v.1.15,2013-01-21 20:19:00,
2013-01-21 14:24:00,38.9,17.7,17.77,SE,133,0.0,4.0,42,0.00,,,0.00,Wunderground v.1.15,2013-01-21 20:24:00,
2013-01-21 14:29:00,38.8,18.2,17.77,ESE,122,0.0,4.0,43,0.00,,,0.00,Wunderground v.1.15,2013-01-21 20:29:00,
2013-01-21 14:34:00,38.7,18.1,17.77,South,188,0.0,2.0,43,0.00,,,0.00,Wunderground v.1.15,2013-01-21 20:34:00,
2013-01-21 14:39:00,38.7,18.1,17.77,ENE,77,0.0,3.0,43,0.00,,,0.00,Wunderground v.1.15,2013-01-21 20:39:00,
2013-01-21 14:44:00,38.6,18.0,17.77,NNE,23,1.0,2.0,43,0.00,,,0.00,Wunderground v.1.15,2013-01-21 20:44:00,
2013-01-21 14:49:00,38.6,18.0,17.77,NW,313,0.0,4.0,43,0.00,,,0.00,Wunderground v.1.15,2013-01-21 20:49:00,
2013-01-21 14:54:00,38.5,17.9,17.77,NW,313,0.0,1.0,43,0.00,,,0.00,Wunderground v.1.15,2013-01-21 20:54:00,
2013-01-21 14:59:00,38.5,17.9,17.77,NW,313,0.0,1.0,43,0.00,,,0.00,Wunderground v.1.15,2013-01-21 20:59:00,
2013-01-21 15:04:00,38.4,18.4,17.77,NW,307,1.0,3.0,44,0.00,,,0.00,Wunderground v.1.15,2013-01-21 21:04:00,
2013-01-21 15:09:00,38.3,17.7,17.77,NE,44,1.0,5.0,43,0.00,,,0.00,Wunderground v.1.15,2013-01-21 21:09:00,
2013-01-21 15:14:00,38.1,18.1,17.77,WNW,299,2.0,5.0,44,0.00,,,0.00,Wunderground v.1.15,2013-01-21 21:14:00,
2013-01-21 15:19:00,38.0,18.0,18.67,NNW,331,0.0,5.0,44,0.00,,,0.00,Wunderground v.1.15,2013-01-21 21:19:00,
2013-01-21 15:25:00,38.0,18.0,18.67,NW,316,0.0,5.0,44,0.00,,,0.00,Wunderground v.1.15,2013-01-21 21:25:00,
2013-01-21 15:30:00,37.9,17.9,18.67,NNW,331,0.0,1.0,44,0.00,,,0.00,Wunderground v.1.15,2013-01-21 21:30:00,
2013-01-21 15:35:00,37.8,17.8,16.65,NNW,332,1.0,4.0,44,0.00,,,0.00,Wunderground v.1.15,2013-01-21 21:35:00,
2013-01-21 15:40:00,37.7,18.2,16.65,NNW,331,0.0,1.0,45,0.00,,,0.00,Wunderground v.1.15,2013-01-21 21:40:00,
2013-01-21 15:45:00,37.7,18.2,16.65,NNW,332,0.0,3.0,45,0.00,,,0.00,Wunderground v.1.15,2013-01-21 21:45:00,
2013-01-21 15:50:00,37.6,18.2,16.65,NNW,327,0.0,1.0,45,0.00,,,0.00,Wunderground v.1.15,2013-01-21 21:50:00,
2013-01-21 15:55:00,37.5,18.1,16.65,NNW,327,0.0,2.0,45,0.00,,,0.00,Wunderground v.1.15,2013-01-21 21:55:00,
2013-01-21 16:00:00,37.4,18.0,16.65,NW,322,2.0,3.0,45,0.00,,,0.00,Wunderground v.1.15,2013-01-21 22:00:00,
2013-01-21 16:05:00,37.3,17.9,16.65,NNE,33,1.0,4.0,45,0.00,,,0.00,Wunderground v.1.15,2013-01-21 22:05:00,
2013-01-21 16:10:00,37.2,18.3,16.65,East,86,0.0,2.0,46,0.00,,,0.00,Wunderground v.1.15,2013-01-21 22:10:00,
2013-01-21 16:15:00,37.0,18.1,16.65,NNW,331,0.0,2.0,46,0.00,,,0.00,Wunderground v.1.15,2013-01-21 22:15:00,
2013-01-21 16:20:00,36.8,17.9,16.65,NNE,14,0.0,1.0,46,0.00,,,0.00,Wunderground v.1.15,2013-01-21 22:20:00,
2013-01-21 16:25:00,36.6,18.2,16.65,SSE,160,0.0,2.0,47,0.00,,,0.00,Wunderground v.1.15,2013-01-21 22:25:00,
2013-01-21 16:30:00,36.4,18.1,16.65,SE,130,0.0,6.0,47,0.00,,,0.00,Wunderground v.1.15,2013-01-21 22:30:00,
2013-01-21 16:36:00,36.1,17.8,16.65,SE,124,0.0,6.0,47,0.00,,,0.00,Wunderground v.1.15,2013-01-21 22:36:00,
2013-01-21 16:41:00,35.9,17.6,16.65,NW,326,0.0,0.0,47,0.00,,,0.00,Wunderground v.1.15,2013-01-21 22:41:00,
2013-01-21 16:46:00,35.8,18.0,16.65,NW,326,0.0,2.0,48,0.00,,,0.00,Wunderground v.1.15,2013-01-21 22:46:00,
2013-01-21 16:51:00,35.6,17.8,16.65,SE,140,0.0,1.0,48,0.00,,,0.00,Wunderground v.1.15,2013-01-21 22:51:00,
2013-01-21 16:56:00,35.3,17.5,16.65,NNW,336,0.0,3.0,48,0.00,,,0.00,Wunderground v.1.15,2013-01-21 22:56:00,
2013-01-21 17:01:00,35.2,17.4,16.65,NE,55,0.0,0.0,48,0.00,,,0.00,Wunderground v.1.15,2013-01-21 23:01:00,
2013-01-21 17:06:00,35.0,17.7,16.65,NE,55,0.0,1.0,49,0.00,,,0.00,Wunderground v.1.15,2013-01-21 23:06:00,
2013-01-21 17:11:00,34.7,17.5,16.65,ENE,58,0.0,0.0,49,0.00,,,0.00,Wunderground v.1.15,2013-01-21 23:11:00,
2013-01-21 17:16:00,34.4,17.7,16.65,ESE,123,0.0,1.0,50,0.00,,,0.00,Wunderground v.1.15,2013-01-21 23:16:00,
2013-01-21 18:41:00,30.9,16.2,16.65,SE,127,0.0,0.0,54,0.00,,,0.00,Wunderground v.1.15,2013-01-22 00:41:00,
2013-01-21 18:46:00,30.7,16.0,16.65,SE,126,0.0,0.0,54,0.00,,,0.00,Wunderground v.1.15,2013-01-22 00:46:00,
2013-01-21 18:51:00,30.5,16.2,16.65,SE,126,0.0,0.0,55,0.00,,,0.00,Wunderground v.1.15,2013-01-22 00:51:00,
2013-01-21 18:56:00,30.3,16.0,16.65,SE,127,0.0,0.0,55,0.00,,,0.00,Wunderground v.1.15,2013-01-22 00:56:00,
2013-01-21 19:01:00,30.1,15.9,16.65,SE,127,0.0,0.0,55,0.00,,,0.00,Wunderground v.1.15,2013-01-22 01:01:00,
2013-01-21 19:06:00,29.9,16.1,16.65,SE,127,0.0,0.0,56,0.00,,,0.00,Wunderground v.1.15,2013-01-22 01:06:00,
2013-01-21 19:11:00,29.7,15.9,16.65,SE,126,0.0,0.0,56,0.00,,,0.00,Wunderground v.1.15,2013-01-22 01:11:00,
2013-01-21 19:17:00,29.5,15.7,16.65,SE,127,0.0,0.0,56,0.00,,,0.00,Wunderground v.1.15,2013-01-22 01:17:00,
2013-01-21 19:22:00,29.3,15.5,16.65,SE,127,0.0,0.0,56,0.00,,,0.00,Wunderground v.1.15,2013-01-22 01:22:00,
2013-01-21 19:27:00,29.1,15.7,16.65,SE,127,0.0,0.0,57,0.00,,,0.00,Wunderground v.1.15,2013-01-22 01:27:00,
2013-01-21 19:32:00,28.9,16.0,16.65,SE,127,0.0,0.0,58,0.00,,,0.00,Wunderground v.1.15,2013-01-22 01:32:00,
2013-01-21 19:37:00,28.7,16.2,16.65,SE,126,0.0,0.0,59,0.00,,,0.00,Wunderground v.1.15,2013-01-22 01:37:00,
2013-01-21 19:42:00,28.5,16.4,16.65,SE,126,0.0,0.0,60,0.00,,,0.00,Wunderground v.1.15,2013-01-22 01:42:00,
2013-01-21 19:47:00,28.4,16.7,16.65,SE,127,0.0,0.0,61,0.00,,,0.00,Wunderground v.1.15,2013-01-22 01:47:00,
2013-01-21 19:52:00,28.2,16.5,16.65,SE,127,0.0,0.0,61,0.00,,,0.00,Wunderground v.1.15,2013-01-22 01:52:00,
2013-01-21 19:57:00,28.1,16.4,16.65,SE,126,0.0,0.0,61,0.00,,,0.00,Wunderground v.1.15,2013-01-22 01:57:00,
2013-01-21 20:02:00,28.0,16.3,16.65,SE,126,0.0,0.0,61,0.00,,,0.00,Wunderground v.1.15,2013-01-22 02:02:00,
2013-01-21 20:07:00,27.8,16.1,16.65,SW,229,0.0,0.0,61,0.00,,,0.00,Wunderground v.1.15,2013-01-22 02:07:00,
2013-01-21 20:12:00,27.7,16.0,16.65,SW,229,0.0,0.0,61,0.00,,,0.00,Wunderground v.1.15,2013-01-22 02:12:00,
2013-01-21 20:17:00,27.6,15.9,16.65,SW,229,0.0,0.0,61,0.00,,,0.00,Wunderground v.1.15,2013-01-22 02:17:00,
2013-01-21 20:22:00,27.5,15.8,16.65,SW,229,0.0,0.0,61,0.00,,,0.00,Wunderground v.1.15,2013-01-22 02:22:00,
2013-01-21 20:27:00,27.4,16.1,16.65,SW,229,0.0,0.0,62,0.00,,,0.00,Wunderground v.1.15,2013-01-22 02:27:00,
2013-01-21 20:32:00,27.3,16.0,16.65,SW,229,0.0,0.0,62,0.00,,,0.00,Wunderground v.1.15,2013-01-22 02:32:00,
2013-01-21 20:37:00,27.1,15.8,16.65,SW,229,0.0,0.0,62,0.00,,,0.00,Wunderground v.1.15,2013-01-22 02:37:00,
2013-01-21 20:42:00,27.1,15.8,16.65,SW,229,0.0,0.0,62,0.00,,,0.00,Wunderground v.1.15,2013-01-22 02:42:00,
2013-01-21 20:47:00,27.0,16.1,16.65,SW,229,0.0,0.0,63,0.00,,,0.00,Wunderground v.1.15,2013-01-22 02:47:00,
2013-01-21 20:52:00,26.9,16.0,16.65,SW,229,1.0,1.0,63,0.00,,,0.00,Wunderground v.1.15,2013-01-22 02:52:00,
2013-01-21 20:57:00,26.8,15.9,16.65,SW,229,0.0,1.0,63,0.00,,,0.00,Wunderground v.1.15,2013-01-22 02:57:00,
2013-01-21 21:02:00,26.8,16.2,16.65,SW,229,0.0,0.0,64,0.00,,,0.00,Wunderground v.1.15,2013-01-22 03:02:00,
2013-01-21 21:07:00,26.7,16.1,16.65,SW,229,0.0,0.0,64,0.00,,,0.00,Wunderground v.1.15,2013-01-22 03:07:00,
2013-01-21 21:12:00,26.6,16.1,16.65,SW,229,0.0,0.0,64,0.00,,,0.00,Wunderground v.1.15,2013-01-22 03:12:00,
2013-01-21 21:17:00,26.6,16.1,16.65,SW,229,0.0,0.0,64,0.00,,,0.00,Wunderground v.1.15,2013-01-22 03:17:00,
2013-01-21 21:22:00,26.5,16.0,16.65,SW,229,0.0,0.0,64,0.00,,,0.00,Wunderground v.1.15,2013-01-22 03:22:00,
2013-01-21 21:27:00,26.3,16.1,16.65,SW,229,0.0,0.0,65,0.00,,,0.00,Wunderground v.1.15,2013-01-22 03:27:00,
2013-01-21 21:32:00,26.3,16.1,16.65,SW,229,0.0,0.0,65,0.00,,,0.00,Wunderground v.1.15,2013-01-22 03:32:00,
2013-01-21 21:37:00,26.2,16.4,16.65,NE,42,0.0,2.0,66,0.00,,,0.00,Wunderground v.1.15,2013-01-22 03:37:00,
2013-01-21 21:42:00,26.2,16.4,16.65,NE,42,0.0,0.0,66,0.00,,,0.00,Wunderground v.1.15,2013-01-22 03:42:00,
2013-01-21 21:47:00,26.2,16.4,16.65,NE,40,0.0,1.0,66,0.00,,,0.00,Wunderground v.1.15,2013-01-22 03:47:00,
2013-01-21 21:52:00,26.1,16.3,16.65,NE,40,0.0,1.0,66,0.00,,,0.00,Wunderground v.1.15,2013-01-22 03:52:00,
2013-01-21 21:57:00,26.1,16.6,16.65,SE,134,0.0,1.0,67,0.00,,,0.00,Wunderground v.1.15,2013-01-22 03:57:00,
2013-01-21 22:02:00,26.1,16.6,16.65,WNW,298,0.0,1.0,67,0.00,,,0.00,Wunderground v.1.15,2013-01-22 04:02:00,
2013-01-21 22:07:00,26.1,16.3,16.65,WNW,298,0.0,1.0,66,0.00,,,0.00,Wunderground v.1.15,2013-01-22 04:07:00,
2013-01-21 22:12:00,26.0,16.2,16.65,WNW,298,0.0,0.0,66,0.00,,,0.00,Wunderground v.1.15,2013-01-22 04:12:00,
2013-01-21 22:17:00,25.9,16.4,16.65,WNW,298,0.0,1.0,67,0.00,,,0.00,Wunderground v.1.15,2013-01-22 04:17:00,
2013-01-21 22:22:00,25.8,16.3,16.65,WNW,298,0.0,0.0,67,0.00,,,0.00,Wunderground v.1.15,2013-01-22 04:22:00,
2013-01-21 22:27:00,25.8,16.3,16.65,WNW,298,0.0,2.0,67,0.00,,,0.00,Wunderground v.1.15,2013-01-22 04:27:00,
2013-01-21 22:32:00,25.7,16.3,16.65,WNW,298,0.0,0.0,67,0.00,,,0.00,Wunderground v.1.15,2013-01-22 04:32:00,
2013-01-21 22:37:00,25.6,16.2,16.65,WNW,298,0.0,0.0,67,0.00,,,0.00,Wunderground v.1.15,2013-01-22 04:37:00,
2013-01-21 22:42:00,25.5,16.1,16.65,WNW,298,0.0,0.0,67,0.00,,,0.00,Wunderground v.1.15,2013-01-22 04:42:00,
2013-01-21 22:47:00,25.4,16.0,16.65,WNW,298,0.0,0.0,67,0.00,,,0.00,Wunderground v.1.15,2013-01-22 04:47:00,
2013-01-21 22:52:00,25.3,15.9,16.65,WNW,298,0.0,0.0,67,0.00,,,0.00,Wunderground v.1.15,2013-01-22 04:52:00,
2013-01-21 22:57:00,25.2,15.8,22.09,WNW,298,0.0,0.0,67,0.00,,,0.00,Wunderground v.1.15,2013-01-22 04:57:00,
2013-01-21 23:01:00,25.1,15.7,22.09,WNW,298,0.0,0.0,67,0.00,,,0.00,Wunderground v.1.15,2013-01-22 05:01:00,
2013-01-21 23:03:00,25.1,16.0,22.09,WNW,298,0.0,0.0,68,0.00,,,0.00,Wunderground v.1.15,2013-01-22 05:03:00,
2013-01-21 23:08:00,25.0,15.9,22.09,WNW,298,0.0,0.0,68,0.00,,,0.00,Wunderground v.1.15,2013-01-22 05:08:00,
2013-01-21 23:13:00,24.8,15.7,22.09,WNW,298,0.0,0.0,68,0.00,,,0.00,Wunderground v.1.15,2013-01-22 05:13:00,
2013-01-21 23:18:00,24.7,15.6,22.09,WNW,298,0.0,0.0,68,0.00,,,0.00,Wunderground v.1.15,2013-01-22 05:18:00,
2013-01-21 23:23:00,24.6,15.5,22.09,WNW,298,0.0,0.0,68,0.00,,,0.00,Wunderground v.1.15,2013-01-22 05:23:00,
2013-01-21 23:28:00,24.5,15.4,22.09,WNW,298,0.0,0.0,68,0.00,,,0.00,Wunderground v.1.15,2013-01-22 05:28:00,
2013-01-21 23:33:00,24.4,15.7,22.09,WNW,298,0.0,1.0,69,0.00,,,0.00,Wunderground v.1.15,2013-01-22 05:33:00,
2013-01-21 23:38:00,24.3,15.6,22.09,WNW,298,0.0,1.0,69,0.00,,,0.00,Wunderground v.1.15,2013-01-22 05:38:00,
2013-01-21 23:43:00,24.3,15.9,22.09,WNW,298,0.0,0.0,70,0.00,,,0.00,Wunderground v.1.15,2013-01-22 05:43:00,
2013-01-21 23:48:00,24.2,15.8,22.09,WNW,298,0.0,0.0,70,0.00,,,0.00,Wunderground v.1.15,2013-01-22 05:48:00,
2013-01-21 23:53:00,24.0,15.6,22.09,WNW,298,0.0,0.0,70,0.00,,,0.00,Wunderground v.1.15,2013-01-22 05:53:00,
2013-01-21 23:58:00,23.9,15.5,22.09,WNW,298,0.0,0.0,70,0.00,,,0.00,Wunderground v.1.15,2013-01-22 05:58:00,